world map with MGS marked

MGS - Airport

This information may not be accurate or current and is not valid for navigation or flight planning. No warranty of fitness for any purpose is made or implied.

flag of Cook Islands

Donate via PayPal

Additional information is available on the NEW Great Circle Mapper

Location
City:  Mangaia Island, Cook Islands
Near (Alt.):A'ua'u 'Enua
ICAO / IATA:NCMG / MGS

Details
Type:Airport (Aerodrome, Airfield)
Latitude:21°53'44"S (-21.895555)
Longitude:157°54'19"W (-157.905277)
Elevation:45 ft (14 m)
Runways:1
Longest:3274 × 98 ft (998 × 30 m)

Time
Timezone:UTC+24:08 (DST+26:08)
Local Time:

Weather
METAR:NCMG  041400Z AUTO 28019KT //// ////// 24/23 Q1004

Related Locations
Nearby:
Farthest:AKF: 12258 mi / 19727 km
Kufrah, LY

Find:

   beyond  
but within

Other Information
Maps:
Sources:

  


 


Great Circle Mapper   Great Circle Mapper
Great Circle Mapper FAQ   Great Circle Mapper FAQ
  Karl's Home Page
KLSē   KLSē Home
   GC on Facebook
Airlines of the World   Airlines of the World
Donate via PayPal


Copyright © 2004-2019, Karl L. Swartz. All rights reserved.
All trademarks mentioned herein belong to their respective owners.

Please see credits for attribution and copyright information.

Karl Swartz <karl@kls2.com>
  Powered by FreeBSD
Valid HTML 4.01!
Labeled with ICRA
hCard Microformat
Geo Microformat